Time;durP1;ratioP1;P1;durP2;ratioP2;P2;SDS_P1;SDS_P2;PMS_P1;PMS_P2;Temp;Humidity;BMP_temperature;BMP_pressure;BME280_temperature;BME280_humidity;BME280_pressure;Samples;Min_cycle;Max_cycle;Signal;HPM_P1;HPM_P2
2022/10/24 00:00:26;;;;;;;10.33;2.83;;;;;;;-145.18;100.00;46664.31;5013575;28;20033;-70
2022/10/24 00:02:52;;;;;;;14.27;3.40;;;;;;;-145.18;100.00;46662.34;5013317;28;20043;-70
2022/10/24 00:05:17;;;;;;;9.77;2.97;;;;;;;-145.18;100.00;46666.25;5011980;28;20050;-70
2022/10/24 00:07:43;;;;;;;10.90;3.13;;;;;;;-145.18;100.00;46676.03;5013210;28;20431;-70
2022/10/24 00:10:11;;;;;;;9.47;2.63;;;;;;;-145.18;100.00;46668.22;5013638;28;20046;-70
2022/10/24 00:12:37;;;;;;;12.53;2.83;;;;;;;-145.18;100.00;46664.31;5012938;28;20072;-70
2022/10/24 00:15:03;;;;;;;10.13;2.63;;;;;;;-145.18;100.00;46668.22;5013550;28;20061;-70
2022/10/24 00:17:28;;;;;;;9.90;2.90;;;;;;;-145.18;100.00;46670.16;5012923;28;20029;-70
2022/10/24 00:19:54;;;;;;;6.33;2.57;;;;;;;-145.18;100.00;46674.06;5013204;28;20131;-70
2022/10/24 00:22:20;;;;;;;11.13;2.73;;;;;;;-145.18;100.00;46676.03;5012772;28;20034;-70
2022/10/24 00:24:45;;;;;;;12.63;3.13;;;;;;;-145.18;100.00;46676.03;5013358;28;20122;-70
2022/10/24 00:27:11;;;;;;;6.30;2.30;;;;;;;-145.18;100.00;46676.03;5013289;28;20038;-70
2022/10/24 00:29:36;;;;;;;12.77;3.00;;;;;;;-145.18;100.00;46677.97;5011989;28;20038;-70
2022/10/24 00:32:02;;;;;;;13.33;2.83;;;;;;;-145.18;100.00;46674.06;5012788;28;20061;-70
2022/10/24 00:34:27;;;;;;;8.30;2.13;;;;;;;-145.18;100.00;46677.97;5011692;28;20029;-70
2022/10/24 00:36:53;;;;;;;7.93;2.70;;;;;;;-145.18;100.00;46683.84;5012610;28;20081;-70
2022/10/24 00:39:18;;;;;;;8.93;2.30;;;;;;;-145.18;100.00;46687.75;5012950;28;20038;-70
2022/10/24 00:41:44;;;;;;;8.73;2.37;;;;;;;-145.18;100.00;46681.88;5012723;28;20037;-70
2022/10/24 00:44:24;;;;;;;18.33;3.70;;;;;;;-145.18;100.00;46687.75;5012803;28;20447;-70
2022/10/24 00:47:01;;;;;;;9.43;1.93;;;;;;;-145.18;100.00;46683.84;5012618;28;20033;-70
2022/10/24 00:49:43;;;;;;;11.70;2.57;;;;;;;-145.18;100.00;46687.75;5012624;28;20025;-70
2022/10/24 00:52:10;;;;;;;6.63;2.60;;;;;;;-145.18;100.00;46683.84;5012431;28;20034;-70
2022/10/24 00:54:37;;;;;;;9.53;2.00;;;;;;;-145.18;100.00;46691.66;5012484;28;20045;-70
2022/10/24 00:57:41;;;;;;;16.00;2.80;;;;;;;-145.18;100.00;46691.66;5012305;28;20030;-70
2022/10/24 01:00:17;;;;;;;8.93;2.10;;;;;;;-145.18;100.00;46695.56;4989612;28;20540;-70
2022/10/24 01:02:43;;;;;;;8.90;2.47;;;;;;;-145.18;100.00;46697.50;5012004;28;20419;-70
2022/10/24 01:05:10;;;;;;;11.47;2.53;;;;;;;-145.18;100.00;46695.56;5012214;28;20462;-70
2022/10/24 01:07:50;;;;;;;7.73;2.43;;;;;;;-145.18;100.00;46705.31;5012156;28;20050;-70
2022/10/24 01:10:37;;;;;;;8.23;2.60;;;;;;;-145.18;100.00;46705.31;5012420;28;20033;-70
2022/10/24 01:13:21;;;;;;;14.67;3.07;;;;;;;-145.18;100.00;46707.28;5012117;28;20057;-70
2022/10/24 01:15:52;;;;;;;7.90;2.10;;;;;;;-145.18;100.00;46703.38;5012306;28;20032;-70
2022/10/24 01:18:33;;;;;;;9.33;2.53;;;;;;;-145.18;100.00;46707.28;5011970;28;20041;-70
2022/10/24 01:21:07;;;;;;;6.37;2.10;;;;;;;-145.18;100.00;46707.28;5012151;28;20057;-70
2022/10/24 01:24:00;;;;;;;11.87;2.80;;;;;;;-145.18;100.00;46709.22;5011757;28;20038;-70
2022/10/24 01:26:34;;;;;;;8.37;2.00;;;;;;;-145.18;100.00;46711.19;5011719;28;20514;-70
2022/10/24 01:29:24;;;;;;;7.00;2.17;;;;;;;-145.18;100.00;46709.22;5012100;28;20164;-70
2022/10/24 01:32:13;;;;;;;13.90;2.67;;;;;;;-145.18;100.00;46709.22;5011923;28;20513;-70
2022/10/24 01:35:11;;;;;;;8.37;2.17;;;;;;;-145.18;100.00;46709.22;5011664;28;20030;-70
2022/10/24 01:37:55;;;;;;;9.50;2.63;;;;;;;-145.18;100.00;46707.28;5011381;28;20033;-70
2022/10/24 01:40:26;;;;;;;11.43;2.37;;;;;;;-145.18;100.00;46705.31;5011822;28;20037;-70
2022/10/24 01:42:57;;;;;;;7.27;2.43;;;;;;;-145.18;100.00;46707.28;5011471;28;20037;-69
2022/10/24 01:45:29;;;;;;;5.67;2.17;;;;;;;-145.18;100.00;46707.28;5011685;28;20034;-70
2022/10/24 01:47:59;;;;;;;8.73;2.23;;;;;;;-145.18;100.00;46709.22;5011534;28;20550;-70
2022/10/24 01:50:26;;;;;;;8.57;2.37;;;;;;;-145.18;100.00;46709.22;5011359;28;20034;-70
2022/10/24 01:52:54;;;;;;;7.03;2.20;;;;;;;-145.18;100.00;46711.19;5011330;28;20088;-70
2022/10/24 01:55:19;;;;;;;8.57;2.50;;;;;;;-145.18;100.00;46711.19;5011638;28;20081;-70
2022/10/24 01:57:45;;;;;;;6.23;2.63;;;;;;;-145.18;100.00;46709.22;5011170;28;20037;-70
2022/10/24 02:00:17;;;;;;;12.23;2.23;;;;;;;-145.18;100.00;46711.19;5011351;28;20038;-70
2022/10/24 02:02:46;;;;;;;10.47;2.17;;;;;;;-145.18;100.00;46715.09;5010896;28;20038;-70
2022/10/24 02:05:28;;;;;;;6.97;2.47;;;;;;;-145.18;100.00;46711.19;5011234;28;20096;-70
2022/10/24 02:07:59;;;;;;;9.20;2.37;;;;;;;-145.18;100.00;46713.13;5011213;28;20038;-70
2022/10/24 02:10:29;;;;;;;4.93;1.80;;;;;;;-145.18;100.00;46713.13;5011243;28;20581;-70
2022/10/24 02:13:00;;;;;;;7.97;2.20;;;;;;;-145.18;100.00;46705.31;5011238;28;20407;-70
2022/10/24 02:15:30;;;;;;;4.73;2.00;;;;;;;-145.18;100.00;46705.31;5010931;28;20036;-70
2022/10/24 02:17:56;;;;;;;10.77;2.07;;;;;;;-145.18;100.00;46703.38;5011060;28;20029;-70
2022/10/24 02:20:32;;;;;;;6.33;1.77;;;;;;;-145.18;100.00;46701.41;5011268;28;20045;-70
2022/10/24 02:23:20;;;;;;;10.60;1.88;;;;;;;-145.18;100.00;46685.78;5011011;28;20033;-70
2022/10/24 02:25:49;;;;;;;12.10;2.20;;;;;;;-145.18;100.00;46679.94;5010878;28;20049;-70
2022/10/24 02:28:22;;;;;;;7.43;2.10;;;;;;;-145.18;100.00;46658.44;5011115;28;20106;-70
2022/10/24 02:30:56;;;;;;;10.40;2.07;;;;;;;-145.18;100.00;46644.78;5010949;28;20491;-70
2022/10/24 02:33:22;;;;;;;8.37;1.53;;;;;;;-145.18;100.00;46660.41;5010992;28;20026;-70
2022/10/24 02:35:49;;;;;;;11.67;2.13;;;;;;;-145.18;100.00;46644.78;5011017;28;20050;-69
2022/10/24 02:38:23;;;;;;;7.33;1.80;;;;;;;-145.18;100.00;46646.72;5009326;28;20050;-70
2022/10/24 02:40:50;;;;;;;6.60;1.60;;;;;;;-145.18;100.00;46646.72;5010865;28;20036;-69
2022/10/24 02:43:18;;;;;;;8.03;2.47;;;;;;;-145.18;100.00;46660.41;5010699;28;20038;-69
2022/10/24 02:45:45;;;;;;;14.20;1.90;;;;;;;-145.18;100.00;46660.41;5010757;28;20490;-70
2022/10/24 02:48:14;;;;;;;10.30;2.80;;;;;;;-145.18;100.00;46660.41;5010462;28;20471;-70
2022/10/24 02:50:41;;;;;;;5.63;1.53;;;;;;;-145.18;100.00;46660.41;5010702;28;20062;-70
2022/10/24 02:53:12;;;;;;;3.43;1.73;;;;;;;-145.18;100.00;46654.53;5013884;28;20034;-70
2022/10/24 02:55:37;;;;;;;8.90;1.60;;;;;;;-145.18;100.00;46652.59;5014787;28;20479;-70
2022/10/24 02:58:03;;;;;;;9.37;1.80;;;;;;;-145.18;100.00;46642.81;5014603;28;20081;-69
2022/10/24 03:03:09;;;;;;;9.93;2.03;;;;;;;-145.18;100.00;46654.53;5117194;23;20504;-71
2022/10/24 03:05:34;;;;;;;5.40;1.20;;;;;;;-145.18;100.00;46654.53;5094666;28;20044;-70
2022/10/24 03:07:59;;;;;;;9.17;1.93;;;;;;;-145.18;100.00;46638.91;5094802;28;20036;-71
2022/10/24 03:10:25;;;;;;;6.23;1.10;;;;;;;-145.18;100.00;46631.09;5095136;28;20047;-70
2022/10/24 03:12:50;;;;;;;6.43;1.63;;;;;;;-145.18;100.00;46635.00;5094278;28;20103;-71
2022/10/24 03:15:16;;;;;;;4.97;2.10;;;;;;;-145.18;100.00;46629.13;5094918;28;20028;-71
2022/10/24 03:17:42;;;;;;;10.13;2.07;;;;;;;-145.18;100.00;46631.09;5093695;28;20081;-71
2022/10/24 03:20:08;;;;;;;10.50;1.90;;;;;;;-145.18;100.00;46635.00;5094866;28;20024;-71
2022/10/24 03:22:34;;;;;;;9.47;1.30;;;;;;;-145.18;100.00;46633.06;5076462;28;20036;-71
2022/10/24 03:25:02;;;;;;;7.43;1.30;;;;;;;-145.18;100.00;46650.63;5094439;28;20032;-71
2022/10/24 03:27:28;;;;;;;6.33;1.60;;;;;;;-145.18;100.00;46640.88;5094301;28;20032;-71
2022/10/24 03:29:54;;;;;;;10.70;1.90;;;;;;;-145.18;100.00;46652.59;5094320;28;20024;-70
2022/10/24 03:32:19;;;;;;;8.60;1.47;;;;;;;-145.18;100.00;46636.94;5094093;28;20085;-70
2022/10/24 03:34:45;;;;;;;8.33;1.73;;;;;;;-145.18;100.00;46638.91;5094196;28;20032;-70
2022/10/24 03:37:10;;;;;;;9.00;1.77;;;;;;;-145.18;100.00;46638.91;5094004;28;20036;-70
2022/10/24 03:39:35;;;;;;;8.13;1.47;;;;;;;-145.18;100.00;46642.81;5094184;28;20090;-71
2022/10/24 03:42:01;;;;;;;8.23;1.37;;;;;;;-145.18;100.00;46638.91;5094098;28;20043;-70
2022/10/24 03:44:26;;;;;;;8.47;1.43;;;;;;;-145.18;100.00;46642.81;5094265;28;20509;-70
2022/10/24 03:46:52;;;;;;;5.03;1.30;;;;;;;-145.18;100.00;46640.88;5075496;28;20383;-71
2022/10/24 03:49:17;;;;;;;6.23;1.20;;;;;;;-145.18;100.00;46635.00;5094093;28;20103;-70
2022/10/24 03:51:42;;;;;;;16.20;1.70;;;;;;;-145.18;100.00;46636.94;5093919;28;20026;-71
2022/10/24 03:54:08;;;;;;;5.33;1.50;;;;;;;-145.18;100.00;46633.06;5094139;28;20069;-70
2022/10/24 03:56:33;;;;;;;7.33;1.67;;;;;;;-145.18;100.00;46625.22;5094015;28;20031;-70
2022/10/24 03:58:59;;;;;;;11.17;1.30;;;;;;;-145.18;100.00;46636.94;5093480;28;20020;-70
2022/10/24 04:01:24;;;;;;;5.10;1.30;;;;;;;-145.18;100.00;46631.09;5093911;28;20032;-70
2022/10/24 04:03:49;;;;;;;4.10;1.20;;;;;;;-145.18;100.00;46635.00;5092080;28;20487;-70
2022/10/24 04:06:15;;;;;;;15.23;1.20;;;;;;;-145.18;100.00;46636.94;5093738;28;20036;-70
2022/10/24 04:08:40;;;;;;;8.77;1.30;;;;;;;-145.18;100.00;46631.09;5091916;28;20032;-70
2022/10/24 04:11:06;;;;;;;7.30;1.33;;;;;;;-145.18;100.00;46638.91;5093904;28;20086;-70
2022/10/24 04:13:32;;;;;;;10.70;1.20;;;;;;;-145.18;100.00;46636.94;5093344;28;20044;-70
2022/10/24 04:15:57;;;;;;;8.77;2.40;;;;;;;-145.18;100.00;46640.88;5083660;28;20032;-71
2022/10/24 04:18:22;;;;;;;8.57;1.30;;;;;;;-145.18;100.00;46636.94;5083519;28;20024;-71
2022/10/24 04:20:48;;;;;;;7.97;1.20;;;;;;;-145.18;100.00;46629.13;5062851;28;20812;-70
2022/10/24 04:23:13;;;;;;;7.30;1.13;;;;;;;-145.18;100.00;46635.00;5072830;28;20048;-71
2022/10/24 04:25:40;;;;;;;13.17;1.33;;;;;;;-145.18;100.00;46631.09;5073073;28;20036;-70
2022/10/24 04:28:05;;;;;;;9.67;1.10;;;;;;;-145.18;100.00;46629.13;5072901;28;20029;-70
2022/10/24 04:30:30;;;;;;;6.40;1.00;;;;;;;-145.18;100.00;46633.06;5074363;28;20531;-70
2022/10/24 04:32:56;;;;;;;10.17;1.30;;;;;;;-145.18;100.00;46633.06;5092813;28;20610;-70
2022/10/24 04:35:22;;;;;;;11.83;1.63;;;;;;;-145.18;100.00;46631.09;5093161;28;20075;-70
2022/10/24 04:37:47;;;;;;;10.50;2.40;;;;;;;-145.18;100.00;46635.00;5092820;28;20220;-70
2022/10/24 04:40:13;;;;;;;7.17;1.50;;;;;;;-145.18;100.00;46633.06;5093191;28;20136;-70
2022/10/24 04:42:39;;;;;;;8.27;1.53;;;;;;;-145.18;100.00;46631.09;5092544;28;20497;-70
2022/10/24 04:45:05;;;;;;;7.67;1.47;;;;;;;-145.18;100.00;46633.06;5092778;28;20085;-70
2022/10/24 04:47:30;;;;;;;8.30;1.47;;;;;;;-145.18;100.00;46631.09;5075030;28;20127;-70
2022/10/24 04:49:56;;;;;;;9.07;1.33;;;;;;;-145.18;100.00;46633.06;5072494;28;20119;-70
2022/10/24 04:52:21;;;;;;;10.57;1.73;;;;;;;-145.18;100.00;46631.09;5072381;28;20052;-70
2022/10/24 04:54:47;;;;;;;5.37;1.10;;;;;;;-145.18;100.00;46631.09;5072373;28;20040;-70
2022/10/24 04:57:12;;;;;;;9.67;2.13;;;;;;;-145.18;100.00;46636.94;5072227;28;20062;-70
2022/10/24 04:59:37;;;;;;;6.30;1.13;;;;;;;-145.18;100.00;46633.06;5072362;28;20041;-70
2022/10/24 05:02:03;;;;;;;6.57;1.20;;;;;;;-145.18;100.00;46631.09;5087537;28;20040;-71
2022/10/24 05:04:28;;;;;;;9.10;1.50;;;;;;;-145.18;100.00;46625.22;5082187;28;20028;-70
2022/10/24 05:06:54;;;;;;;9.87;1.87;;;;;;;-145.18;100.00;46633.06;5081756;28;20025;-71
2022/10/24 05:09:19;;;;;;;9.83;1.50;;;;;;;-145.18;100.00;46633.06;5083559;28;20021;-70
2022/10/24 05:11:44;;;;;;;6.83;1.30;;;;;;;-145.18;100.00;46631.09;5080618;28;20158;-71
2022/10/24 05:14:10;;;;;;;8.87;1.63;;;;;;;-145.18;100.00;46633.06;5081375;28;20032;-70
2022/10/24 05:16:35;;;;;;;6.57;1.97;;;;;;;-145.18;100.00;46633.06;5082001;28;20036;-70
2022/10/24 05:19:00;;;;;;;7.23;1.40;;;;;;;-145.18;100.00;46633.06;5080213;28;20031;-70
2022/10/24 05:21:26;;;;;;;7.83;1.90;;;;;;;-145.18;100.00;46633.06;5082479;28;20036;-71
2022/10/24 05:23:52;;;;;;;7.87;1.53;;;;;;;-145.18;100.00;46635.00;5062812;28;20051;-71
2022/10/24 05:26:17;;;;;;;10.40;2.17;;;;;;;-145.18;100.00;46629.13;5062807;28;20115;-71
2022/10/24 05:28:43;;;;;;;9.90;1.47;;;;;;;-145.18;100.00;46631.09;5081905;28;20162;-71
2022/10/24 05:31:08;;;;;;;11.53;1.87;;;;;;;-145.18;100.00;46633.06;5080650;28;20101;-70
2022/10/24 05:33:33;;;;;;;7.83;1.40;;;;;;;-145.18;100.00;46629.13;5073046;28;20040;-70
2022/10/24 05:35:59;;;;;;;13.30;1.47;;;;;;;-145.18;100.00;46625.22;5071306;28;20390;-70
2022/10/24 05:38:24;;;;;;;8.87;1.43;;;;;;;-145.18;100.00;46627.19;5071528;28;20033;-70
2022/10/24 05:40:50;;;;;;;6.47;1.47;;;;;;;-145.18;100.00;46633.06;5071445;28;20035;-71
2022/10/24 05:43:16;;;;;;;8.50;1.43;;;;;;;-145.18;100.00;46631.09;5071137;28;20044;-70
2022/10/24 05:45:42;;;;;;;8.87;1.60;;;;;;;-145.18;100.00;46631.09;5071477;28;20534;-70
2022/10/24 05:48:08;;;;;;;7.77;1.50;;;;;;;-145.18;100.00;46635.00;5071151;28;20050;-70
2022/10/24 05:50:33;;;;;;;9.93;1.37;;;;;;;-145.18;100.00;46629.13;5071235;28;20529;-69
2022/10/24 05:52:59;;;;;;;13.30;1.67;;;;;;;-145.18;100.00;46635.00;5070930;28;20511;-69
2022/10/24 05:55:25;;;;;;;11.03;1.50;;;;;;;-145.18;100.00;46635.00;5071312;28;20029;-69
2022/10/24 05:57:51;;;;;;;10.53;1.57;;;;;;;-145.18;100.00;46642.81;5070943;28;20036;-69
2022/10/24 06:00:17;;;;;;;8.10;1.63;;;;;;;-145.18;100.00;46640.88;5071112;28;20032;-70
2022/10/24 06:02:43;;;;;;;11.23;1.63;;;;;;;-145.18;100.00;46640.88;5070516;28;20048;-69
2022/10/24 06:05:09;;;;;;;8.00;1.80;;;;;;;-145.18;100.00;46650.63;5053148;28;20481;-71
2022/10/24 06:07:35;;;;;;;7.07;1.57;;;;;;;-145.18;100.00;46640.88;5071015;28;20075;-71
2022/10/24 06:10:02;;;;;;;10.20;1.57;;;;;;;-145.18;100.00;46640.88;5070923;28;20052;-71
2022/10/24 06:12:27;;;;;;;8.70;1.40;;;;;;;-145.18;100.00;46635.00;5071002;28;20024;-71
2022/10/24 06:14:56;;;;;;;12.20;1.70;;;;;;;-145.18;100.00;46640.88;5075468;28;20477;-71
2022/10/24 06:17:22;;;;;;;9.93;1.87;;;;;;;-145.18;100.00;46635.00;5070771;28;20042;-70
2022/10/24 06:19:49;;;;;;;8.90;1.93;;;;;;;-145.18;100.00;46640.88;5070870;28;20032;-71
2022/10/24 06:22:15;;;;;;;14.43;1.70;;;;;;;-145.18;100.00;46625.22;5070667;28;20047;-72
2022/10/24 06:24:40;;;;;;;8.37;1.70;;;;;;;-145.18;100.00;46633.06;5070671;28;20067;-71
2022/10/24 06:27:05;;;;;;;8.00;1.83;;;;;;;-145.18;100.00;46627.19;5079600;28;20194;-72
2022/10/24 06:29:31;;;;;;;10.93;1.90;;;;;;;-145.18;100.00;46629.13;5073201;28;20116;-69
2022/10/24 06:31:57;;;;;;;11.97;1.80;;;;;;;-145.18;100.00;46633.06;5070564;28;20094;-69
2022/10/24 06:34:22;;;;;;;34.13;4.20;;;;;;;-145.18;100.00;46627.19;5070571;28;20036;-69
2022/10/24 06:36:47;;;;;;;11.37;2.00;;;;;;;-145.18;100.00;46633.06;5070121;28;20032;-71
2022/10/24 06:39:13;;;;;;;8.43;1.33;;;;;;;-145.18;100.00;46633.06;5070525;28;20033;-71
2022/10/24 06:41:38;;;;;;;9.93;1.67;;;;;;;-145.18;100.00;46635.00;5070509;28;20036;-72
2022/10/24 06:44:04;;;;;;;8.97;1.93;;;;;;;-145.18;100.00;46636.94;5070179;28;20334;-71
2022/10/24 06:46:29;;;;;;;9.40;2.03;;;;;;;-145.18;100.00;46635.00;5072838;28;20030;-71
2022/10/24 06:48:55;;;;;;;10.77;1.80;;;;;;;-145.18;100.00;46629.13;5076918;28;20085;-71
2022/10/24 06:51:22;;;;;;;10.47;2.40;;;;;;;-145.18;100.00;46629.13;5087112;28;20036;-71
2022/10/24 06:53:47;;;;;;;11.30;2.37;;;;;;;-145.18;100.00;46633.06;5088178;28;20032;-71
2022/10/24 06:56:14;;;;;;;8.27;1.60;;;;;;;-145.18;100.00;46631.09;5076446;28;20035;-71
2022/10/24 06:58:40;;;;;;;12.67;1.93;;;;;;;-145.18;100.00;46631.09;5070290;28;20141;-70
2022/10/24 07:01:17;;;;;;;10.77;2.07;;;;;;;-145.18;100.00;46635.00;5070094;28;20032;-71
2022/10/24 07:03:42;;;;;;;16.17;1.70;;;;;;;-145.18;100.00;46636.94;5069479;28;20128;-70
2022/10/24 07:06:21;;;;;;;7.30;1.57;;;;;;;-145.18;100.00;46642.81;5051743;28;20115;-70
2022/10/24 07:08:47;;;;;;;9.10;2.20;;;;;;;-145.18;100.00;46642.81;5069712;28;20112;-71
2022/10/24 07:11:13;;;;;;;12.10;1.90;;;;;;;-145.18;100.00;46640.88;5070034;28;20112;-71
2022/10/24 07:13:38;;;;;;;9.77;1.70;;;;;;;-145.18;100.00;46640.88;5069911;28;20572;-70
2022/10/24 07:16:04;;;;;;;11.43;2.23;;;;;;;-145.18;100.00;46636.94;5069716;28;20404;-71
2022/10/24 07:18:30;;;;;;;9.50;1.67;;;;;;;-145.18;100.00;46633.06;5069719;28;20035;-71
2022/10/24 07:21:04;;;;;;;8.17;1.63;;;;;;;-145.18;100.00;46636.94;5069696;28;20036;-71
2022/10/24 07:23:31;;;;;;;9.80;1.93;;;;;;;-145.18;100.00;46640.88;5069713;28;20060;-71
2022/10/24 07:26:02;;;;;;;11.10;2.13;;;;;;;-145.18;100.00;46633.06;5069709;28;20025;-71
2022/10/24 07:28:27;;;;;;;9.37;2.20;;;;;;;-145.18;100.00;46631.09;5069685;28;20081;-71
2022/10/24 07:30:52;;;;;;;7.73;1.70;;;;;;;-145.18;100.00;46623.28;5069986;28;20044;-71
2022/10/24 07:33:18;;;;;;;10.63;1.70;;;;;;;-145.18;100.00;46627.19;5069739;28;20362;-71
2022/10/24 07:35:43;;;;;;;11.87;1.77;;;;;;;-145.18;100.00;46625.22;5069356;28;20087;-71
2022/10/24 07:38:08;;;;;;;11.47;1.43;;;;;;;-145.18;100.00;46580.31;5070808;28;20048;-71
2022/10/24 07:40:34;;;;;;;10.70;1.80;;;;;;;-145.18;100.00;46627.19;5073558;28;20097;-71
2022/10/24 07:42:59;;;;;;;11.27;1.70;;;;;;;-145.18;100.00;46623.28;5072808;28;20511;-71
2022/10/24 07:45:26;;;;;;;11.33;1.80;;;;;;;-145.18;100.00;46623.28;5073751;28;20107;-71
2022/10/24 07:47:52;;;;;;;7.73;2.00;;;;;;;-145.18;100.00;46582.25;5072490;28;20135;-71
2022/10/24 07:50:18;;;;;;;12.53;1.90;;;;;;;-145.18;100.00;46576.41;5072913;28;20115;-71
2022/10/24 07:52:43;;;;;;;18.30;2.50;;;;;;;-145.18;100.00;46570.53;5072884;28;20429;-71
2022/10/24 07:55:09;;;;;;;10.60;1.93;;;;;;;-145.18;100.00;46572.50;5076132;28;20039;-71
2022/10/24 07:57:34;;;;;;;15.83;2.60;;;;;;;-145.18;100.00;46574.44;5092470;28;20044;-71
2022/10/24 08:00:00;;;;;;;7.37;1.77;;;;;;;-145.18;100.00;46584.22;5093465;28;20104;-71
2022/10/24 08:02:25;;;;;;;9.47;1.43;;;;;;;-145.18;100.00;46574.44;5093434;28;20052;-71
2022/10/24 08:04:50;;;;;;;8.73;1.60;;;;;;;-145.18;100.00;46570.53;5092573;28;20039;-71
2022/10/24 08:07:16;;;;;;;11.50;2.27;;;;;;;-145.18;100.00;46576.41;5093070;28;20032;-71
2022/10/24 08:09:44;;;;;;;10.70;1.93;;;;;;;-145.18;100.00;46586.16;5085107;28;20046;-71
2022/10/24 08:12:10;;;;;;;7.97;1.53;;;;;;;-145.18;100.00;46582.25;5073031;28;20115;-71
2022/10/24 08:14:38;;;;;;;12.87;1.30;;;;;;;-145.18;100.00;46588.13;5072810;28;20445;-71
2022/10/24 08:17:03;;;;;;;10.80;2.17;;;;;;;-145.18;100.00;46586.16;5072709;28;20035;-71
2022/10/24 08:19:29;;;;;;;10.90;1.73;;;;;;;-145.18;100.00;46592.03;5072552;28;20029;-71
2022/10/24 08:21:55;;;;;;;14.77;1.87;;;;;;;-145.18;100.00;46593.97;5072367;28;20032;-71
2022/10/24 08:24:21;;;;;;;10.27;1.80;;;;;;;-145.18;100.00;46592.03;5072912;28;20470;-71
2022/10/24 08:26:46;;;;;;;10.83;1.90;;;;;;;-145.18;100.00;46601.78;5072719;28;20445;-71
2022/10/24 08:29:13;;;;;;;9.17;2.00;;;;;;;-145.18;100.00;46593.97;5072238;28;20064;-71
2022/10/24 08:31:39;;;;;;;16.83;2.10;;;;;;;-145.18;100.00;46617.41;5072866;28;20120;-70
2022/10/24 08:34:05;;;;;;;11.53;2.63;;;;;;;-145.18;100.00;46595.94;5076882;28;20135;-71
2022/10/24 08:36:34;;;;;;;7.60;1.37;;;;;;;-145.18;100.00;46599.84;5080918;28;20039;-71
2022/10/24 08:39:00;;;;;;;9.30;1.40;;;;;;;-145.18;100.00;46595.94;5084751;28;20060;-70
2022/10/24 08:41:36;;;;;;;8.03;1.70;;;;;;;-145.18;100.00;46599.84;5092859;28;20055;-72
2022/10/24 08:44:13;;;;;;;9.00;1.77;;;;;;;-145.18;100.00;46607.66;5092317;28;20040;-71
2022/10/24 08:46:49;;;;;;;13.37;1.87;;;;;;;-145.18;100.00;46615.47;5092562;28;20020;-71
2022/10/24 08:49:22;;;;;;;10.63;1.87;;;;;;;-145.18;100.00;46613.50;5090757;28;20024;-72
2022/10/24 08:51:54;;;;;;;13.63;1.40;;;;;;;-145.18;100.00;46611.56;5091839;28;20026;-71
2022/10/24 08:54:28;;;;;;;13.30;1.90;;;;;;;-145.18;100.00;46601.78;5074392;28;20503;-72
2022/10/24 08:56:56;;;;;;;9.07;1.73;;;;;;;-145.18;100.00;46615.47;5091930;28;20484;-71
2022/10/24 08:59:24;;;;;;;6.17;1.50;;;;;;;-145.18;100.00;46601.78;5092098;28;20369;-70
2022/10/24 09:02:17;;;;;;;13.97;1.67;;;;;;;-145.18;100.00;46601.78;5097618;28;20063;-71
2022/10/24 09:04:51;;;;;;;8.10;1.53;;;;;;;-145.18;100.00;46607.66;5112265;28;20040;-71
2022/10/24 09:07:20;;;;;;;7.93;1.83;;;;;;;-145.18;100.00;46601.78;5112397;28;20081;-71
2022/10/24 09:09:50;;;;;;;9.17;1.47;;;;;;;-145.18;100.00;46609.59;5112184;28;20059;-71
2022/10/24 09:12:18;;;;;;;6.10;1.60;;;;;;;-145.18;100.00;46607.66;5112191;28;20024;-71
2022/10/24 09:14:49;;;;;;;6.73;1.37;;;;;;;-145.18;100.00;46617.41;5112260;28;20380;-71
2022/10/24 09:17:19;;;;;;;5.30;1.50;;;;;;;-145.18;100.00;46613.50;5111758;28;20414;-71
2022/10/24 09:19:52;;;;;;;8.30;1.30;;;;;;;-145.18;100.00;46595.94;5111738;28;20027;-71
2022/10/24 09:22:17;;;;;;;9.00;1.87;;;;;;;-145.18;100.00;46597.88;5112099;28;20031;-71
2022/10/24 09:25:01;;;;;;;8.87;1.40;;;;;;;-145.18;100.00;46597.88;5084964;28;20029;-71
2022/10/24 09:27:31;;;;;;;11.17;1.73;;;;;;;-145.18;100.00;46597.88;5070882;28;20047;-71
2022/10/24 09:29:57;;;;;;;8.03;1.17;;;;;;;-145.18;100.00;46595.94;5069967;28;20028;-71
2022/10/24 09:32:32;;;;;;;7.03;1.57;;;;;;;-145.18;100.00;46611.56;5071127;28;20024;-71
2022/10/24 09:35:05;;;;;;;9.77;1.73;;;;;;;-145.18;100.00;46595.94;5069939;28;20021;-71
2022/10/24 09:37:40;;;;;;;7.37;1.80;;;;;;;-145.18;100.00;46597.88;5071182;28;20029;-71
2022/10/24 09:40:17;;;;;;;6.33;2.00;;;;;;;-145.18;100.00;46601.78;5070578;28;20071;-71
2022/10/24 09:42:50;;;;;;;17.07;1.80;;;;;;;-145.18;100.00;46592.03;5085830;28;20115;-70
2022/10/24 09:45:18;;;;;;;7.87;1.77;;;;;;;-145.18;100.00;46590.06;5091255;28;20027;-70
2022/10/24 09:47:44;;;;;;;7.00;1.80;;;;;;;-145.18;100.00;46584.22;5091292;28;20085;-71
2022/10/24 09:50:22;;;;;;;14.97;1.60;;;;;;;-145.18;100.00;46588.13;5090397;28;20032;-70
2022/10/24 09:52:50;;;;;;;12.43;2.00;;;;;;;-145.18;100.00;46584.22;5091109;28;20040;-70
2022/10/24 09:55:23;;;;;;;20.13;1.73;;;;;;;-145.18;100.00;46578.34;5091050;28;20073;-71
2022/10/24 09:57:52;;;;;;;8.67;1.77;;;;;;;-145.18;100.00;46572.50;5090693;28;20031;-70
2022/10/24 10:00:22;;;;;;;6.90;1.53;;;;;;;-145.18;100.00;46576.41;5090559;28;20032;-70
2022/10/24 10:03:04;;;;;;;10.20;1.47;;;;;;;-145.18;100.00;46586.16;5090809;28;20718;-69
2022/10/24 10:05:42;;;;;;;10.30;1.50;;;;;;;-145.18;100.00;46584.22;5090981;28;20028;-69
2022/10/24 10:08:14;;;;;;;9.10;1.90;;;;;;;-145.18;100.00;46590.06;5090362;28;20497;-70
2022/10/24 10:10:39;;;;;;;9.70;1.83;;;;;;;-145.18;100.00;46599.84;5087369;28;20476;-70
2022/10/24 10:13:17;;;;;;;6.20;1.50;;;;;;;-145.18;100.00;46593.97;5080655;28;20028;-72
2022/10/24 10:15:42;;;;;;;5.77;1.40;;;;;;;-145.18;100.00;46593.97;5057888;28;20039;-71
2022/10/24 10:18:42;;;;;;;10.03;1.90;;;;;;;-145.18;100.00;46597.88;5072551;28;20534;-72
2022/10/24 10:21:17;;;;;;;9.47;1.77;;;;;;;-145.18;100.00;46607.66;5058262;28;20048;-71
2022/10/24 10:23:51;;;;;;;8.23;1.87;;;;;;;-145.18;100.00;46597.88;5070215;28;20036;-71
2022/10/24 10:26:26;;;;;;;7.50;1.37;;;;;;;-145.18;100.00;46599.84;5070050;28;20031;-72
2022/10/24 10:28:57;;;;;;;8.10;2.27;;;;;;;-145.18;100.00;46599.84;5077328;28;20161;-71
2022/10/24 10:31:33;;;;;;;9.40;1.77;;;;;;;-145.18;100.00;46599.84;5090170;28;20032;-71
2022/10/24 10:34:15;;;;;;;9.67;1.90;;;;;;;-145.18;100.00;46601.78;5090400;28;20043;-71
2022/10/24 10:36:55;;;;;;;9.97;2.50;;;;;;;-145.18;100.00;46599.84;5090429;28;20047;-71
2022/10/24 10:39:40;;;;;;;10.00;2.00;;;;;;;-145.18;100.00;46601.78;5090351;28;20024;-71
2022/10/24 10:42:13;;;;;;;10.60;1.85;;;;;;;-145.18;100.00;46609.59;5090374;28;20039;-71
2022/10/24 10:45:12;;;;;;;8.77;1.57;;;;;;;-145.18;100.00;46603.75;5090602;28;20035;-71
2022/10/24 10:47:52;;;;;;;8.67;2.20;;;;;;;-145.18;100.00;46597.88;5090608;28;20028;-71
2022/10/24 10:50:26;;;;;;;8.17;2.20;;;;;;;-145.18;100.00;46599.84;5066415;28;20547;-71
2022/10/24 10:52:57;;;;;;;9.60;1.70;;;;;;;-145.18;100.00;46603.75;5085813;28;20047;-71
2022/10/24 10:55:49;;;;;;;6.10;1.60;;;;;;;-145.18;100.00;46590.06;5089647;28;20031;-71
2022/10/24 10:58:24;;;;;;;9.57;1.50;;;;;;;-145.18;100.00;46586.16;5089198;28;20032;-71
2022/10/24 11:00:59;;;;;;;10.73;2.40;;;;;;;-145.18;100.00;46580.31;5089777;28;20545;-70
2022/10/24 11:03:30;;;;;;;7.85;2.33;;;;;;;-145.18;100.00;46582.25;5089358;28;20048;-70
2022/10/24 11:06:32;;;;;;;8.83;1.40;;;;;;;-145.18;100.00;46576.41;5089822;28;20032;-70
2022/10/24 11:09:16;;;;;;;9.67;2.53;;;;;;;-145.18;100.00;46574.44;5089426;28;20380;-71
2022/10/24 11:11:46;;;;;;;10.47;1.90;;;;;;;-145.18;100.00;46574.44;5071200;28;20481;-71
2022/10/24 11:14:28;;;;;;;6.47;1.70;;;;;;;-145.18;100.00;46572.50;5074231;28;20093;-71
2022/10/24 11:16:59;;;;;;;4.70;1.30;;;;;;;-145.18;100.00;46580.31;5097061;28;20426;-71
2022/10/24 11:19:48;;;;;;;7.80;1.47;;;;;;;-145.18;100.00;46580.31;5100929;28;20017;-71